This is the latest recevied weather packets stored in our database for station/object EA7AIS-10. If no packets are shown the sender has not sent any weather packets the latest 10 day(s).
| Time | Temp. | Humidity | Pressure | Rain* | Wind** | Luminosity | Snow |
|---|---|---|---|---|---|---|---|
| 1777843889 | 17.78° C | 76% | 1012.8 hPa | - | - | - | - |
| 1777842989 | 18.33° C | 72% | 1012.6 hPa | - | - | - | - |
| 1777842089 | 18.33° C | 71% | 1012.5 hPa | - | - | - | - |
| 1777841189 | 18.33° C | 73% | 1012.2 hPa | - | - | - | - |
| 1777840289 | 18.33° C | 73% | 1012 hPa | - | - | - | - |
| 1777839388 | 18.89° C | 72% | 1011.7 hPa | - | - | - | - |
| 1777838488 | 18.89° C | 71% | 1011.4 hPa | - | - | - | - |
| 1777837588 | 18.89° C | 72% | 1011.2 hPa | - | - | - | - |
| 1777836689 | 18.89° C | 73% | 1011.1 hPa | - | - | - | - |
| 1777835788 | 19.44° C | 73% | 1010.8 hPa | - | - | - | - |
| 1777834888 | 20° C | 67% | 1010.7 hPa | - | - | - | - |
| 1777833988 | 20.56° C | 65% | 1010.6 hPa | - | - | - | - |
| 1777833088 | 20.56° C | 63% | 1010.6 hPa | - | - | - | - |
| 1777832188 | 21.11° C | 59% | 1010.6 hPa | - | - | - | - |
| 1777831288 | 22.22° C | 54% | 1010.4 hPa | - | - | - | - |
| 1777830388 | 22.22° C | 51% | 1010.3 hPa | - | - | - | - |
| 1777829488 | 22.22° C | 51% | 1010.3 hPa | - | - | - | - |
| 1777828588 | 22.78° C | 48% | 1010.3 hPa | - | - | - | - |
| 1777827688 | 22.78° C | 46% | 1010.4 hPa | - | - | - | - |
| 1777826787 | 23.33° C | 41% | 1010.5 hPa | - | - | - | - |
| 1777825888 | 23.33° C | 45% | 1010.6 hPa | - | - | - | - |
| 1777824987 | 23.33° C | 41% | 1010.5 hPa | - | - | - | - |
| 1777824087 | 23.89° C | 38% | 1010.7 hPa | - | - | - | - |
| 1777823187 | 23.89° C | 37% | 1010.7 hPa | - | - | - | - |
| 1777822287 | 23.89° C | 38% | 1010.7 hPa | - | - | - | - |
* Rain since midnight (hover to see other rain measurements)
** Current wind speed in m/s (hover to see current wind gust speed)